createdAt,value
2022-08-09T00:00:00.620Z,101937.59
2022-08-09T00:02:36.447Z,101939.56
2022-08-09T00:06:18.465Z,101943.66
2022-08-09T00:08:10.171Z,101935.88
2022-08-09T00:10:42.198Z,101935.63
2022-08-09T00:13:17.692Z,101941.59
2022-08-09T00:15:58.944Z,101937.84
2022-08-09T00:18:34.734Z,101938.41
2022-08-09T00:21:07.980Z,101935.78
2022-08-09T00:23:54.986Z,101937.41
2022-08-09T00:26:33.148Z,101940.13
2022-08-09T00:29:12.333Z,101941.19
2022-08-09T00:32:00.891Z,101933.63
2022-08-09T00:34:33.556Z,101940.38
2022-08-09T00:37:05.519Z,101938.22
2022-08-09T00:40:13.629Z,101935.28
2022-08-09T00:44:17.022Z,101931.50
2022-08-09T00:45:22.239Z,101935.84
2022-08-09T00:47:55.500Z,101927.75
2022-08-09T00:50:27.489Z,101926.66
2022-08-09T00:52:59.538Z,101932.06
2022-08-09T00:56:02.962Z,101932.66
2022-08-09T00:58:26.203Z,101933.97
2022-08-09T01:01:00.065Z,101937.22
2022-08-09T01:03:32.802Z,101936.41
2022-08-09T01:06:17.345Z,101937.00
2022-08-09T01:08:51.649Z,101936.75
2022-08-09T01:11:23.921Z,101926.75
2022-08-09T01:14:00.326Z,101934.03
2022-08-09T01:16:35.151Z,101933.56
2022-08-09T01:19:07.391Z,101931.06
2022-08-09T01:21:51.207Z,101937.09
2022-08-09T01:24:23.844Z,101935.44
2022-08-09T01:26:56.428Z,101928.38
2022-08-09T01:29:28.351Z,101926.28
2022-08-09T01:32:29.438Z,101928.63
2022-08-09T01:35:06.984Z,101933.78
2022-08-09T01:38:08.174Z,101935.09
2022-08-09T01:40:41.727Z,101934.28
2022-08-09T01:43:13.250Z,101939.94
2022-08-09T01:45:47.740Z,101937.22
2022-08-09T01:48:19.349Z,101936.41
2022-08-09T01:50:56.072Z,101932.56
2022-08-09T01:53:41.642Z,101941.19
2022-08-09T01:56:13.994Z,101946.75
2022-08-09T01:58:48.861Z,101941.84
2022-08-09T02:01:21.454Z,101938.81
2022-08-09T02:04:12.297Z,101939.91
2022-08-09T02:07:03.002Z,101942.53
2022-08-09T02:09:42.154Z,101937.38
2022-08-09T02:12:18.092Z,101936.44
2022-08-09T02:14:53.465Z,101942.66
2022-08-09T02:18:00.080Z,101935.63
2022-08-09T02:20:26.573Z,101930.94
2022-08-09T02:23:04.547Z,101934.47
2022-08-09T02:25:42.589Z,101940.94
2022-08-09T02:28:21.058Z,101940.94
2022-08-09T02:30:55.953Z,101945.84
2022-08-09T02:33:58.385Z,101941.28
2022-08-09T02:36:19.528Z,101942.91
2022-08-09T02:38:51.066Z,101946.91
2022-08-09T02:41:22.618Z,101940.19
2022-08-09T02:43:55.586Z,101941.03
2022-08-09T02:46:28.401Z,101945.38
2022-08-09T02:49:00.233Z,101940.19
2022-08-09T02:51:37.239Z,101941.84
2022-08-09T02:54:13.900Z,101949.38
2022-08-09T02:56:45.991Z,101948.06
2022-08-09T02:59:26.195Z,101951.84
2022-08-09T03:02:11.957Z,101959.69
2022-08-09T03:04:43.913Z,101962.19
2022-08-09T03:07:16.755Z,101954.88
2022-08-09T03:09:56.406Z,101864.75
2022-08-09T03:12:28.875Z,101945.97
2022-08-09T03:15:00.723Z,101953.25
2022-08-09T03:17:32.531Z,101948.66
2022-08-09T03:20:11.231Z,101955.72
2022-08-09T03:22:46.839Z,101948.16
2022-08-09T03:25:58.260Z,101951.44
2022-08-09T03:28:20.348Z,101953.09
2022-08-09T03:30:52.704Z,101954.72
2022-08-09T03:33:24.237Z,101958.00
2022-08-09T03:36:12.904Z,101955.78
2022-08-09T03:38:46.988Z,101959.88
2022-08-09T03:41:19.000Z,101960.44
2022-08-09T03:44:03.043Z,101961.28
2022-08-09T03:46:40.540Z,101971.84
2022-08-09T03:49:12.074Z,101968.56
2022-08-09T03:51:58.290Z,101968.81
2022-08-09T03:54:31.460Z,101977.72
2022-08-09T03:57:04.333Z,101979.38
2022-08-09T03:59:53.381Z,101974.78
2022-08-09T04:02:28.212Z,101976.91
2022-08-09T04:05:06.521Z,101972.91
2022-08-09T04:07:53.691Z,101979.38
2022-08-09T04:10:30.454Z,101981.00
2022-08-09T04:13:09.419Z,101982.66
2022-08-09T04:16:20.516Z,101983.22
2022-08-09T04:18:36.807Z,101986.25
2022-08-09T04:21:09.375Z,101990.00
2022-08-09T04:23:40.870Z,101991.41
2022-08-09T04:26:38.053Z,101999.03
2022-08-09T04:29:15.498Z,101994.75
2022-08-09T04:31:47.702Z,101991.00
2022-08-09T04:34:30.789Z,102002.63
2022-08-09T04:37:03.877Z,101997.53
2022-08-09T04:39:40.584Z,101997.84
2022-08-09T04:42:15.919Z,102003.13
2022-08-09T04:44:50.409Z,101998.84
2022-08-09T04:47:24.833Z,102000.25
2022-08-09T04:49:56.639Z,102001.38
2022-08-09T04:52:28.143Z,102007.97
2022-08-09T04:55:00.163Z,102009.34
2022-08-09T04:57:54.139Z,102012.13
2022-08-09T05:00:23.764Z,102012.19
2022-08-09T05:02:56.721Z,102017.94
2022-08-09T05:05:32.161Z,102016.63
2022-08-09T05:08:20.582Z,102024.31
2022-08-09T05:10:53.308Z,102024.72
2022-08-09T05:13:25.201Z,102017.47
2022-08-09T05:15:58.584Z,102012.44
2022-08-09T05:18:38.601Z,102020.66
2022-08-09T05:21:29.801Z,102024.78
2022-08-09T05:24:04.107Z,102024.41
2022-08-09T05:26:45.693Z,102027.69
2022-08-09T05:29:22.840Z,102029.88
2022-08-09T05:32:00.434Z,102032.56
2022-08-09T05:34:32.793Z,102029.06
2022-08-09T05:37:05.223Z,102035.00
2022-08-09T05:39:43.333Z,102039.19
2022-08-09T05:42:17.483Z,102039.72
2022-08-09T05:45:05.465Z,102041.25
2022-08-09T05:47:45.619Z,102036.97
2022-08-09T05:50:44.307Z,102044.72
2022-08-09T05:53:21.430Z,102041.84
2022-08-09T05:56:04.401Z,102044.47
2022-08-09T05:58:36.579Z,102038.44
2022-08-09T06:01:08.582Z,102046.06
2022-08-09T06:03:57.997Z,102046.91
2022-08-09T06:06:30.846Z,102049.16
2022-08-09T06:09:05.591Z,102046.78
2022-08-09T06:11:57.598Z,102054.53
2022-08-09T06:14:29.494Z,102050.44
2022-08-09T06:17:09.202Z,102050.19
2022-08-09T06:19:41.452Z,102053.59
2022-08-09T06:22:15.400Z,102064.44
2022-08-09T06:24:47.604Z,102060.59
2022-08-09T06:27:20.512Z,102063.47
2022-08-09T06:30:04.306Z,102066.03
2022-08-09T06:32:59.509Z,102065.41
2022-08-09T06:35:55.834Z,102069.72
2022-08-09T06:38:20.514Z,102071.84
2022-08-09T06:41:04.100Z,102077.44
2022-08-09T06:43:36.321Z,102079.25
2022-08-09T06:46:11.551Z,102077.94
2022-08-09T06:49:03.024Z,102081.47
2022-08-09T06:51:40.006Z,102085.81
2022-08-09T06:54:14.771Z,102078.97
2022-08-09T06:56:46.901Z,102076.78
2022-08-09T07:00:50.915Z,102072.66
2022-08-09T07:02:10.731Z,102080.88
2022-08-09T07:04:42.659Z,102078.97
2022-08-09T07:07:28.529Z,102087.72
2022-08-09T07:10:24.401Z,102097.50
2022-08-09T07:12:59.342Z,102096.00
2022-08-09T07:15:53.995Z,102089.22
2022-08-09T07:18:23.066Z,102094.25
2022-08-09T07:20:54.865Z,102096.44
2022-08-09T07:23:27.308Z,101869.00
2022-08-09T07:26:02.803Z,102100.69
2022-08-09T07:28:35.623Z,102106.53
2022-08-09T07:31:07.197Z,102106.91
2022-08-09T07:33:53.012Z,102103.97
2022-08-09T07:36:27.587Z,102094.06
2022-08-09T07:39:02.246Z,102094.88
2022-08-09T07:41:38.780Z,102098.94
2022-08-09T07:44:11.778Z,102091.72
2022-08-09T07:46:43.426Z,102102.72
2022-08-09T07:49:15.681Z,102096.53
2022-08-09T07:52:03.425Z,102096.81
2022-08-09T07:54:38.689Z,102099.09
2022-08-09T07:57:11.758Z,102105.97
2022-08-09T07:59:52.266Z,102100.88
2022-08-09T08:02:35.325Z,102107.53
2022-08-09T08:05:18.521Z,102103.72
2022-08-09T08:08:43.540Z,102106.06
2022-08-09T08:11:03.140Z,102114.78
2022-08-09T08:13:44.993Z,102109.97
2022-08-09T08:16:31.365Z,102101.50
2022-08-09T08:19:04.583Z,102100.06
2022-08-09T08:21:39.451Z,102099.09
2022-08-09T08:24:16.578Z,102099.09
2022-08-09T08:26:55.538Z,102101.03
2022-08-09T08:29:28.632Z,102103.25
2022-08-09T08:32:12.494Z,102105.78
2022-08-09T08:34:51.931Z,102103.59
2022-08-09T08:37:41.069Z,102097.34
2022-08-09T08:40:19.096Z,102106.25
2022-08-09T08:42:50.971Z,102103.84
2022-08-09T08:45:37.114Z,102102.00
2022-08-09T08:48:10.198Z,102111.88
2022-08-09T08:50:49.257Z,102108.81
2022-08-09T08:53:23.802Z,102103.69
2022-08-09T08:56:03.889Z,102112.91
2022-08-09T08:58:36.193Z,102105.72
2022-08-09T09:01:20.962Z,102110.31
2022-08-09T09:03:56.762Z,102107.38
2022-08-09T09:06:28.322Z,102104.84
2022-08-09T09:09:00.190Z,102107.47
2022-08-09T09:11:33.878Z,102106.19
2022-08-09T09:14:10.438Z,102103.94
2022-08-09T09:16:47.337Z,102111.16
2022-08-09T09:19:40.147Z,102109.25
2022-08-09T09:22:11.984Z,102106.31
2022-08-09T09:24:44.725Z,102108.50
2022-08-09T09:27:22.083Z,102107.47
2022-08-09T09:30:14.312Z,102106.78
2022-08-09T09:32:57.791Z,102108.47
2022-08-09T09:35:33.206Z,102094.31
2022-08-09T09:38:05.214Z,102100.69
2022-08-09T09:40:36.768Z,102098.88
2022-08-09T09:43:08.704Z,102086.91
2022-08-09T09:48:36.991Z,102093.53
2022-08-09T09:51:18.835Z,102088.09
2022-08-09T09:54:01.289Z,102088.69
2022-08-09T09:56:36.269Z,102091.03
2022-08-09T09:59:35.236Z,102085.50
2022-08-09T10:02:07.107Z,102085.66
2022-08-09T10:04:39.924Z,102084.75
2022-08-09T10:07:11.494Z,102085.28
2022-08-09T10:09:48.513Z,102088.88
2022-08-09T10:12:28.512Z,102078.94
2022-08-09T10:15:03.039Z,102084.47
2022-08-09T10:17:50.322Z,102077.41
2022-08-09T10:20:35.444Z,102076.84
2022-08-09T10:23:07.957Z,102062.19
2022-08-09T10:26:07.887Z,102064.69
2022-08-09T10:28:31.952Z,102067.13
2022-08-09T10:34:10.453Z,102060.78
2022-08-09T10:36:47.188Z,102057.28
2022-08-09T10:39:20.084Z,102059.53
2022-08-09T10:41:52.393Z,102054.38
2022-08-09T10:44:26.582Z,102060.34
2022-08-09T10:47:01.514Z,102057.06
2022-08-09T10:49:42.755Z,102060.66
2022-08-09T10:52:23.097Z,102052.63
2022-08-09T10:54:58.051Z,102054.72
2022-08-09T10:57:30.538Z,102050.03
2022-08-09T11:00:02.195Z,102046.16
2022-08-09T11:03:11.361Z,102057.38
2022-08-09T11:05:35.626Z,102048.53
2022-08-09T11:08:09.949Z,102045.44
2022-08-09T11:10:47.145Z,102036.75
2022-08-09T11:13:50.219Z,102043.06
2022-08-09T11:16:34.839Z,102045.16
2022-08-09T11:19:09.332Z,102028.72
2022-08-09T11:21:42.667Z,101965.28
2022-08-09T11:24:28.431Z,102043.53
2022-08-09T11:27:03.616Z,102032.06
2022-08-09T11:30:04.039Z,102032.72
2022-08-09T11:32:30.229Z,102036.38
2022-08-09T11:35:04.477Z,102029.56
2022-08-09T11:37:41.386Z,102037.88
2022-08-09T11:40:14.799Z,102042.03
2022-08-09T11:42:50.195Z,102042.34
2022-08-09T11:45:23.238Z,102042.06
2022-08-09T11:48:03.515Z,102051.44
2022-08-09T11:50:55.786Z,102033.66
2022-08-09T11:54:00.491Z,102037.19
2022-08-09T11:56:34.415Z,102037.72
2022-08-09T11:59:14.391Z,102024.13
2022-08-09T12:02:34.787Z,102033.06
2022-08-09T12:04:38.323Z,102030.22
2022-08-09T12:07:10.953Z,102026.66
2022-08-09T12:09:50.598Z,102026.34
2022-08-09T12:12:29.169Z,102024.03
2022-08-09T12:15:08.299Z,102023.94
2022-08-09T12:17:44.462Z,102024.03
2022-08-09T12:20:22.470Z,102020.16
2022-08-09T12:22:55.975Z,102016.66
2022-08-09T12:25:35.733Z,102019.88
2022-08-09T12:29:10.284Z,102027.69
2022-08-09T12:31:01.521Z,102018.13
2022-08-09T12:33:51.450Z,102015.81
2022-08-09T12:36:27.396Z,102013.41
2022-08-09T12:39:04.217Z,102017.97
2022-08-09T12:41:39.957Z,102008.25
2022-08-09T12:44:12.982Z,102007.03
2022-08-09T12:46:48.876Z,102016.78
2022-08-09T12:49:22.717Z,102003.50
2022-08-09T12:52:01.502Z,102000.16
2022-08-09T12:54:34.850Z,102007.38
2022-08-09T12:57:06.789Z,101997.22
2022-08-09T13:00:03.480Z,101998.31
2022-08-09T13:02:33.957Z,101993.47
2022-08-09T13:05:06.423Z,101987.59
2022-08-09T13:07:51.025Z,101987.19
2022-08-09T13:10:23.584Z,101984.81
2022-08-09T13:13:09.941Z,101981.31
2022-08-09T13:15:42.547Z,101979.97
2022-08-09T13:18:17.446Z,101982.47
2022-08-09T13:21:04.269Z,101980.38
2022-08-09T13:24:06.936Z,101985.94
2022-08-09T13:26:36.908Z,101984.94
2022-08-09T13:29:08.922Z,101984.56
2022-08-09T13:32:15.665Z,101979.31
2022-08-09T13:34:32.585Z,101984.81
2022-08-09T13:37:05.468Z,101980.72
2022-08-09T13:41:50.414Z,101983.50
2022-08-09T13:42:36.498Z,101985.66
2022-08-09T13:45:08.371Z,101989.53
2022-08-09T13:47:49.175Z,101990.38
2022-08-09T13:50:31.105Z,101990.00
2022-08-09T13:53:03.684Z,101985.53
2022-08-09T13:55:37.007Z,101990.50
2022-08-09T13:58:11.810Z,101983.13
2022-08-09T14:00:50.631Z,101986.72
2022-08-09T14:04:02.525Z,101982.06
2022-08-09T14:06:25.625Z,101978.44
2022-08-09T14:09:00.851Z,101980.78
2022-08-09T14:11:41.326Z,101972.59
2022-08-09T14:14:25.715Z,101964.94
2022-08-09T14:16:59.683Z,101965.41
2022-08-09T14:19:33.627Z,101964.84
2022-08-09T14:22:05.866Z,101968.06
2022-08-09T14:24:46.932Z,101970.47
2022-08-09T14:27:26.744Z,101967.41
2022-08-09T14:30:34.667Z,101964.03
2022-08-09T14:32:50.144Z,101962.28
2022-08-09T14:35:21.792Z,101970.97
2022-08-09T14:38:02.067Z,101968.66
2022-08-09T14:41:01.173Z,101960.59
2022-08-09T14:43:26.545Z,101954.56
2022-08-09T14:46:57.305Z,101968.38
2022-08-09T14:49:10.571Z,101964.38
2022-08-09T14:51:42.802Z,101954.56
2022-08-09T14:54:16.728Z,101960.09
2022-08-09T14:56:58.666Z,101965.50
2022-08-09T14:59:30.798Z,101957.13
2022-08-09T15:02:02.651Z,101950.91
2022-08-09T15:04:34.185Z,101953.38
2022-08-09T15:07:05.894Z,101948.81
2022-08-09T15:10:04.082Z,101949.97
2022-08-09T15:12:33.929Z,101953.31
2022-08-09T15:15:08.686Z,101959.72
2022-08-09T15:17:42.096Z,101951.09
2022-08-09T15:21:53.558Z,101955.38
2022-08-09T15:24:02.278Z,101952.03
2022-08-09T15:25:58.943Z,101961.28
2022-08-09T15:28:33.269Z,101958.84
2022-08-09T15:31:09.968Z,101956.78
2022-08-09T15:34:15.445Z,101947.72
2022-08-09T15:36:34.988Z,101952.28
2022-08-09T15:39:06.573Z,101946.75
2022-08-09T15:41:38.429Z,101941.59
2022-08-09T15:44:14.163Z,101948.03
2022-08-09T15:46:51.251Z,101938.38
2022-08-09T15:49:23.924Z,101936.47
2022-08-09T15:52:04.934Z,101940.84
2022-08-09T15:54:48.889Z,101934.25
2022-08-09T15:57:35.178Z,101940.22
2022-08-09T16:00:24.352Z,101938.47
2022-08-09T16:02:57.808Z,101934.59
2022-08-09T16:05:47.238Z,101936.00
2022-08-09T16:08:30.932Z,101941.19
2022-08-09T16:11:02.941Z,101941.09
2022-08-09T16:14:03.391Z,101929.81
2022-08-09T16:16:29.634Z,101935.09
2022-08-09T16:19:01.180Z,101937.16
2022-08-09T16:21:34.846Z,101931.88
2022-08-09T16:24:13.090Z,101926.16
2022-08-09T16:26:58.611Z,101932.97
2022-08-09T16:29:37.752Z,101928.16
2022-08-09T16:32:43.486Z,101928.03
2022-08-09T16:35:19.380Z,101926.81
2022-08-09T16:38:05.270Z,101932.22
2022-08-09T16:40:41.027Z,101928.84
2022-08-09T16:43:14.394Z,101930.78
2022-08-09T16:45:46.557Z,101930.84
2022-08-09T16:48:42.403Z,101931.06
2022-08-09T16:51:13.930Z,101931.19
2022-08-09T16:56:37.929Z,101932.50
2022-08-09T16:59:21.072Z,101940.22
2022-08-09T17:01:53.295Z,101938.38
2022-08-09T17:04:28.266Z,101943.13
2022-08-09T17:08:40.585Z,101943.69
2022-08-09T17:09:52.311Z,101945.00
2022-08-09T17:12:33.642Z,101944.03
2022-08-09T17:15:30.489Z,101942.00
2022-08-09T17:18:00.859Z,101941.78
2022-08-09T17:20:37.308Z,101945.19
2022-08-09T17:23:14.861Z,101950.00
2022-08-09T17:25:53.041Z,101953.00
2022-08-09T17:28:24.876Z,101948.19
2022-08-09T17:30:58.801Z,101946.31
2022-08-09T17:33:32.264Z,101952.38
2022-08-09T17:36:10.949Z,101958.63
2022-08-09T17:38:57.702Z,101956.81
2022-08-09T17:41:38.813Z,101961.66
2022-08-09T17:44:42.401Z,101962.78
2022-08-09T17:47:03.993Z,101973.13
2022-08-09T17:49:35.675Z,101972.69
2022-08-09T17:52:07.504Z,101974.13
2022-08-09T17:54:54.514Z,101974.16
2022-08-09T17:58:03.820Z,101973.47
2022-08-09T18:00:20.618Z,101973.00
2022-08-09T18:03:12.737Z,101976.66
2022-08-09T18:05:44.601Z,101977.53
2022-08-09T18:08:16.286Z,101982.59
2022-08-09T18:11:02.278Z,101985.13
2022-08-09T18:13:43.500Z,101986.53
2022-08-09T18:16:29.666Z,101982.50
2022-08-09T18:19:03.798Z,101978.97
2022-08-09T18:21:41.317Z,101989.91
2022-08-09T18:24:14.243Z,101987.56
2022-08-09T18:26:49.401Z,101998.78
2022-08-09T18:30:40.712Z,101990.41
2022-08-09T18:32:12.954Z,101992.34
2022-08-09T18:34:44.447Z,101992.94
2022-08-09T18:37:48.993Z,102000.84
2022-08-09T18:40:08.270Z,101997.94
2022-08-09T18:42:43.013Z,102005.34
2022-08-09T18:45:21.456Z,102007.81
2022-08-09T18:48:07.302Z,102011.66
2022-08-09T18:50:39.927Z,102017.41
2022-08-09T18:53:13.634Z,102024.00
2022-08-09T18:55:56.218Z,102011.47
2022-08-09T18:58:31.989Z,102020.47
2022-08-09T19:01:04.552Z,102022.97
2022-08-09T19:03:54.686Z,102028.38
2022-08-09T19:06:28.030Z,102032.75
2022-08-09T19:09:02.522Z,102032.75
2022-08-09T19:11:37.860Z,102040.66
2022-08-09T19:14:09.985Z,102045.28
2022-08-09T19:16:50.112Z,102039.03
2022-08-09T19:19:26.024Z,102050.72
2022-08-09T19:22:06.191Z,102054.00
2022-08-09T19:25:11.304Z,102046.88
2022-08-09T19:27:31.129Z,101869.69
2022-08-09T19:30:22.497Z,102045.78
2022-08-09T19:32:55.244Z,102044.16
2022-08-09T19:35:27.153Z,102046.03
2022-08-09T19:37:58.669Z,102059.06
2022-08-09T19:40:33.357Z,102057.41
2022-08-09T19:43:10.336Z,102063.63
2022-08-09T19:45:48.367Z,102052.75
2022-08-09T19:49:00.155Z,102058.19
2022-08-09T19:51:20.374Z,102063.31
2022-08-09T19:53:52.028Z,102064.69
2022-08-09T19:56:29.110Z,102064.13
2022-08-09T19:59:39.992Z,102070.03
2022-08-09T20:02:08.010Z,102068.94
2022-08-09T20:04:54.988Z,102065.66
2022-08-09T20:07:56.962Z,102068.34
2022-08-09T20:10:22.379Z,102065.91
2022-08-09T20:13:00.352Z,102072.66
2022-08-09T20:16:37.518Z,102073.16
2022-08-09T20:18:27.811Z,102081.28
2022-08-09T20:21:00.284Z,102079.03
2022-08-09T20:23:38.922Z,102080.66
2022-08-09T20:26:13.295Z,102089.03
2022-08-09T20:28:48.611Z,102085.47
2022-08-09T20:31:22.330Z,102088.97
2022-08-09T20:33:58.440Z,102082.97
2022-08-09T20:36:33.908Z,102087.56
2022-08-09T20:39:29.155Z,102087.00
2022-08-09T20:41:57.930Z,102082.03
2022-08-09T20:44:33.262Z,102080.91
2022-08-09T20:47:08.235Z,102080.88
2022-08-09T20:49:59.778Z,102082.72
2022-08-09T20:52:31.285Z,101855.28
2022-08-09T20:55:03.259Z,102073.69
2022-08-09T20:57:34.827Z,102079.88
2022-08-09T21:00:31.617Z,102092.03
2022-08-09T21:03:04.919Z,102090.63
2022-08-09T21:05:55.005Z,102095.19
2022-08-09T21:08:36.619Z,102094.34
2022-08-09T21:14:00.669Z,102091.28
2022-08-09T21:16:32.661Z,102101.00
2022-08-09T21:20:19.618Z,102094.97
2022-08-09T21:21:57.288Z,102098.66
2022-08-09T21:24:32.469Z,102101.31
2022-08-09T21:27:50.520Z,102102.91
2022-08-09T21:29:57.212Z,102108.84
2022-08-09T21:32:33.260Z,102112.63
2022-08-09T21:35:05.756Z,102119.06
2022-08-09T21:37:47.183Z,102113.56
2022-08-09T21:40:32.603Z,102027.22
2022-08-09T21:43:04.303Z,102114.84
2022-08-09T21:45:38.849Z,102117.69
2022-08-09T21:48:10.749Z,102107.91
2022-08-09T21:50:49.703Z,102103.50
2022-08-09T21:53:40.120Z,102110.50
2022-08-09T21:56:28.307Z,102107.16
2022-08-09T21:59:04.777Z,102110.13
2022-08-09T22:01:58.710Z,102117.09
2022-08-09T22:04:55.699Z,102117.84
2022-08-09T22:07:35.534Z,102112.91
2022-08-09T22:10:12.347Z,102122.84
2022-08-09T22:12:49.773Z,102119.81
2022-08-09T22:15:23.375Z,102126.56
2022-08-09T22:18:11.971Z,102118.38
2022-08-09T22:20:44.325Z,102123.44
2022-08-09T22:23:17.643Z,102126.66
2022-08-09T22:26:07.384Z,102129.63
2022-08-09T22:28:47.099Z,102127.66
2022-08-09T22:31:25.871Z,102125.69
2022-08-09T22:33:59.489Z,102120.66
2022-08-09T22:36:37.315Z,102116.81
2022-08-09T22:39:47.015Z,102124.09
2022-08-09T22:42:21.443Z,102121.91
2022-08-09T22:48:05.187Z,102118.03
2022-08-09T22:48:13.618Z,102128.75
2022-08-09T22:50:37.812Z,102130.31
2022-08-09T22:53:09.329Z,102126.22
2022-08-09T22:56:29.476Z,102126.38
2022-08-09T22:58:33.576Z,102131.19
2022-08-09T23:01:06.614Z,102120.84
2022-08-09T23:04:04.134Z,102124.03
2022-08-09T23:06:49.954Z,102114.78
2022-08-09T23:09:21.814Z,102130.91
2022-08-09T23:11:53.618Z,102131.41
2022-08-09T23:14:41.410Z,102132.38
2022-08-09T23:17:14.481Z,102127.47
2022-08-09T23:20:00.589Z,102121.72
2022-08-09T23:22:37.763Z,102124.53
2022-08-09T23:25:11.153Z,102120.19
2022-08-09T23:28:11.856Z,102130.66
2022-08-09T23:30:34.700Z,102128.44
2022-08-09T23:33:06.187Z,102130.00
2022-08-09T23:36:04.440Z,102125.06
2022-08-09T23:38:29.511Z,102130.13
2022-08-09T23:41:01.322Z,102128.41
2022-08-09T23:43:32.850Z,102124.53
2022-08-09T23:46:04.729Z,102134.19
2022-08-09T23:48:36.222Z,102134.03
2022-08-09T23:51:08.046Z,102127.56
2022-08-09T23:53:39.555Z,102130.16
2022-08-09T23:56:11.397Z,102133.34
2022-08-09T23:58:42.911Z,102132.19
